createdAt,value
2019-04-05T00:00:18.500Z,38.20
2019-04-05T00:03:05.230Z,38.30
2019-04-05T00:05:51.523Z,38.30
2019-04-05T00:08:37.933Z,38.30
2019-04-05T00:11:24.355Z,38.30
2019-04-05T00:14:10.651Z,38.40
2019-04-05T00:16:56.980Z,38.30
2019-04-05T00:19:43.499Z,38.30
2019-04-05T00:22:29.725Z,38.30
2019-04-05T00:25:16.027Z,38.30
2019-04-05T00:28:03.948Z,38.30
2019-04-05T00:30:50.187Z,38.30
2019-04-05T00:33:36.564Z,38.30
2019-04-05T00:36:23.295Z,38.30
2019-04-05T00:39:09.483Z,38.20
2019-04-05T00:41:55.692Z,38.20
2019-04-05T00:44:42.271Z,38.30
2019-04-05T00:47:28.568Z,38.20
2019-04-05T00:50:15.216Z,38.30
2019-04-05T00:53:01.474Z,38.30
2019-04-05T00:55:48.207Z,38.30
2019-04-05T00:58:34.263Z,38.30
2019-04-05T01:01:20.681Z,38.40
2019-04-05T01:04:07.119Z,38.30
2019-04-05T01:06:53.320Z,38.30
2019-04-05T01:09:39.859Z,38.40
2019-04-05T01:12:26.537Z,38.40
2019-04-05T01:15:13.463Z,38.30
2019-04-05T01:18:01.235Z,38.30
2019-04-05T01:20:48.896Z,38.30
2019-04-05T01:23:35.336Z,38.30
2019-04-05T01:26:23.505Z,38.30
2019-04-05T01:29:10.428Z,38.40
2019-04-05T01:31:56.916Z,38.30
2019-04-05T01:34:44.423Z,38.30
2019-04-05T01:37:30.583Z,38.30
2019-04-05T01:40:16.867Z,38.40
2019-04-05T01:43:03.615Z,38.30
2019-04-05T01:45:54.025Z,38.30
2019-04-05T01:48:38.451Z,38.30
2019-04-05T01:51:24.523Z,38.40
2019-04-05T01:54:10.714Z,38.40
2019-04-05T01:56:57.104Z,38.50
2019-04-05T01:59:43.101Z,38.40
2019-04-05T02:02:29.350Z,38.50
2019-04-05T02:05:16.524Z,38.50
2019-04-05T02:08:03.983Z,38.40
2019-04-05T02:10:50.005Z,38.50
2019-04-05T02:13:37.252Z,38.50
2019-04-05T02:16:23.646Z,38.60
2019-04-05T02:19:09.880Z,38.60
2019-04-05T02:21:56.424Z,38.60
2019-04-05T02:24:42.759Z,38.60
2019-04-05T02:27:29.298Z,38.50
2019-04-05T02:30:19.097Z,38.60
2019-04-05T02:33:15.275Z,38.50
2019-04-05T02:36:07.041Z,38.60
2019-04-05T02:38:53.475Z,38.80
2019-04-05T02:41:41.353Z,38.60
2019-04-05T02:44:30.506Z,38.60
2019-04-05T02:47:17.296Z,38.60
2019-04-05T02:50:03.514Z,38.60
2019-04-05T02:52:52.955Z,38.70
2019-04-05T02:55:41.745Z,38.70
2019-04-05T02:58:31.316Z,38.70
2019-04-05T03:01:17.787Z,38.70
2019-04-05T03:04:04.278Z,38.60
2019-04-05T03:06:51.749Z,38.70
2019-04-05T03:09:37.923Z,38.80
2019-04-05T03:12:24.911Z,38.70
2019-04-05T03:15:11.452Z,38.80
2019-04-05T03:17:57.508Z,38.80
2019-04-05T03:20:43.893Z,38.70
2019-04-05T03:23:33.227Z,38.80
2019-04-05T03:26:23.202Z,38.70
2019-04-05T03:29:09.947Z,38.80
2019-04-05T03:31:56.395Z,38.80
2019-04-05T03:34:43.436Z,38.70
2019-04-05T03:37:29.605Z,38.60
2019-04-05T03:40:16.922Z,38.70
2019-04-05T03:43:03.541Z,38.60
2019-04-05T03:45:50.506Z,38.70
2019-04-05T03:48:36.829Z,38.70
2019-04-05T03:51:24.142Z,38.70
2019-04-05T03:54:10.614Z,38.70
2019-04-05T03:56:58.090Z,38.70
2019-04-05T03:59:44.504Z,38.60
2019-04-05T04:02:30.718Z,38.60
2019-04-05T04:05:18.349Z,38.60
2019-04-05T04:08:05.004Z,38.60
2019-04-05T04:10:53.015Z,38.60
2019-04-05T04:13:39.256Z,38.50
2019-04-05T04:16:25.789Z,38.60
2019-04-05T04:19:12.027Z,38.60
2019-04-05T04:22:14.210Z,38.50
2019-04-05T04:25:00.579Z,38.50
2019-04-05T04:27:46.966Z,38.60
2019-04-05T04:30:34.301Z,38.50
2019-04-05T04:33:20.647Z,38.40
2019-04-05T04:36:07.249Z,38.50
2019-04-05T04:38:54.520Z,38.50
2019-04-05T04:41:41.333Z,38.40
2019-04-05T04:44:27.296Z,38.40
2019-04-05T04:47:25.546Z,38.40
2019-04-05T04:50:02.996Z,38.40
2019-04-05T04:52:49.759Z,38.40
2019-04-05T04:55:37.138Z,38.50
2019-04-05T04:58:23.895Z,38.50
2019-04-05T05:01:10.443Z,38.60
2019-04-05T05:03:56.911Z,38.70
2019-04-05T05:06:43.401Z,38.70
2019-04-05T05:09:30.223Z,38.70
2019-04-05T05:12:18.117Z,38.70
2019-04-05T05:15:05.690Z,38.80
2019-04-05T05:20:51.500Z,38.80
2019-04-05T05:23:38.688Z,38.70
2019-04-05T05:26:25.616Z,38.70
2019-04-05T05:29:12.466Z,38.70
2019-04-05T05:31:58.956Z,38.60
2019-04-05T05:34:45.588Z,38.40
2019-04-05T05:37:33.007Z,38.30
2019-04-05T05:40:33.781Z,38.20
2019-04-05T05:43:09.247Z,38.10
2019-04-05T05:45:55.803Z,37.90
2019-04-05T05:48:43.069Z,37.70
2019-04-05T05:51:29.867Z,37.50
2019-04-05T05:54:15.903Z,37.30
2019-04-05T05:57:02.303Z,37.10
2019-04-05T05:59:49.131Z,36.90
2019-04-05T06:02:38.384Z,36.60
2019-04-05T06:05:23.432Z,36.50
2019-04-05T06:08:09.794Z,36.20
2019-04-05T06:10:56.304Z,36.10
2019-04-05T06:13:42.665Z,35.90
2019-04-05T06:16:28.604Z,35.80
2019-04-05T06:19:15.763Z,35.70
2019-04-05T06:22:02.396Z,35.60
2019-04-05T06:24:48.256Z,35.40
2019-04-05T06:27:35.526Z,35.20
2019-04-05T06:30:21.944Z,35.10
2019-04-05T06:33:09.346Z,34.90
2019-04-05T06:35:55.641Z,34.70
2019-04-05T06:38:42.002Z,34.50
2019-04-05T06:41:30.360Z,34.40
2019-04-05T06:44:16.455Z,34.20
2019-04-05T06:47:02.763Z,34.00
2019-04-05T06:49:48.907Z,33.90
2019-04-05T06:52:34.700Z,33.70
2019-04-05T06:55:20.487Z,33.50
2019-04-05T06:58:10.415Z,33.30
2019-04-05T07:00:57.307Z,33.20
2019-04-05T07:03:43.799Z,33.10
2019-04-05T07:06:30.108Z,33.00
2019-04-05T07:09:16.406Z,32.80
2019-04-05T07:12:02.999Z,32.70
2019-04-05T07:14:48.841Z,32.60
2019-04-05T07:17:34.695Z,32.50
2019-04-05T07:20:23.441Z,32.40
2019-04-05T07:23:08.887Z,32.30
2019-04-05T07:25:56.443Z,32.20
2019-04-05T07:28:43.381Z,32.10
2019-04-05T07:31:29.148Z,32.00
2019-04-05T07:34:14.935Z,32.00
2019-04-05T07:37:00.816Z,31.90
2019-04-05T07:39:46.948Z,32.00
2019-04-05T07:42:33.284Z,32.00
2019-04-05T07:45:19.342Z,32.00
2019-04-05T07:48:05.795Z,31.90
2019-04-05T07:50:52.021Z,31.80
2019-04-05T07:53:37.896Z,31.70
2019-04-05T07:56:24.591Z,31.60
2019-04-05T07:59:10.720Z,31.50
2019-04-05T08:01:56.657Z,31.50
2019-04-05T08:04:43.612Z,31.30
2019-04-05T08:07:34.146Z,31.20
2019-04-05T08:10:22.197Z,31.10
2019-04-05T08:13:08.380Z,31.00
2019-04-05T08:15:55.588Z,30.80
2019-04-05T08:18:41.907Z,30.90
2019-04-05T08:21:27.906Z,30.60
2019-04-05T08:24:14.399Z,30.50
2019-04-05T08:27:00.272Z,30.50
2019-04-05T08:29:47.107Z,30.30
2019-04-05T08:32:32.856Z,30.40
2019-04-05T08:35:18.628Z,30.20
2019-04-05T08:38:04.452Z,30.20
2019-04-05T08:40:50.260Z,30.00
2019-04-05T08:43:36.831Z,30.00
2019-04-05T08:46:23.080Z,30.00
2019-04-05T08:49:11.525Z,30.00
2019-04-05T08:51:57.471Z,30.00
2019-04-05T08:54:43.816Z,30.20
2019-04-05T08:57:30.145Z,29.90
2019-04-05T09:00:17.052Z,29.90
2019-04-05T09:03:03.684Z,29.90
2019-04-05T09:05:50.240Z,29.90
2019-04-05T09:08:36.520Z,29.90
2019-04-05T09:11:22.326Z,29.90
2019-04-05T09:14:08.936Z,29.90
2019-04-05T09:16:55.306Z,29.90
2019-04-05T09:19:41.491Z,29.90
2019-04-05T09:22:27.892Z,30.00
2019-04-05T09:25:14.508Z,30.00
2019-04-05T09:28:01.710Z,30.00
2019-04-05T09:30:48.122Z,30.00
2019-04-05T09:33:34.532Z,30.00
2019-04-05T09:36:20.655Z,30.00
2019-04-05T09:39:15.036Z,30.10
2019-04-05T09:41:58.390Z,30.10
2019-04-05T09:44:44.808Z,30.10
2019-04-05T09:47:31.186Z,30.10
2019-04-05T09:50:17.602Z,30.20
2019-04-05T09:53:03.923Z,30.30
2019-04-05T09:55:50.274Z,30.80
2019-04-05T09:58:37.693Z,30.40
2019-04-05T10:01:24.037Z,30.50
2019-04-05T10:04:10.502Z,30.50
2019-04-05T10:06:56.999Z,30.50
2019-04-05T10:09:43.799Z,30.60
2019-04-05T10:12:30.091Z,30.60
2019-04-05T10:15:16.530Z,30.70
2019-04-05T10:18:02.724Z,30.70
2019-04-05T10:20:49.515Z,30.70
2019-04-05T10:23:35.905Z,30.80
2019-04-05T10:26:23.148Z,31.00
2019-04-05T10:29:10.471Z,30.90
2019-04-05T10:31:56.896Z,31.10
2019-04-05T10:34:42.663Z,31.20
2019-04-05T10:37:28.576Z,31.30
2019-04-05T10:40:16.561Z,31.20
2019-04-05T10:43:03.125Z,31.40
2019-04-05T10:45:49.179Z,31.50
2019-04-05T10:48:36.099Z,31.70
2019-04-05T10:51:22.308Z,31.90
2019-04-05T10:54:09.643Z,31.90
2019-04-05T10:56:56.298Z,32.00
2019-04-05T10:59:42.823Z,32.10
2019-04-05T11:02:29.363Z,32.20
2019-04-05T11:05:15.964Z,32.30
2019-04-05T11:08:01.964Z,32.40
2019-04-05T11:10:49.116Z,32.50
2019-04-05T11:13:36.503Z,32.60
2019-04-05T11:16:23.613Z,32.50
2019-04-05T11:19:09.950Z,32.60
2019-04-05T11:21:56.624Z,32.60
2019-04-05T11:24:42.919Z,32.70
2019-04-05T11:27:29.116Z,32.80
2019-04-05T11:30:26.985Z,32.80
2019-04-05T11:33:13.184Z,32.90
2019-04-05T11:36:00.383Z,32.90
2019-04-05T11:38:49.906Z,33.00
2019-04-05T11:41:36.749Z,33.10
2019-04-05T11:44:25.871Z,33.00
2019-04-05T11:47:12.480Z,33.10
2019-04-05T11:50:00.184Z,33.10
2019-04-05T11:52:46.480Z,33.00
2019-04-05T11:55:32.523Z,32.90
2019-04-05T11:58:18.748Z,33.10
2019-04-05T12:01:13.929Z,33.40
2019-04-05T12:04:00.211Z,33.30
2019-04-05T12:06:46.824Z,33.50
2019-04-05T12:09:34.304Z,33.50
2019-04-05T12:12:20.628Z,33.60
2019-04-05T12:15:07.411Z,33.60
2019-04-05T12:17:53.876Z,33.70
2019-04-05T12:20:49.118Z,33.80
2019-04-05T12:23:28.183Z,33.90
2019-04-05T12:26:15.640Z,34.10
2019-04-05T12:29:02.142Z,34.20
2019-04-05T12:31:48.515Z,34.20
2019-04-05T12:37:23.771Z,34.40
2019-04-05T12:40:11.333Z,34.50
2019-04-05T12:42:58.647Z,34.80
2019-04-05T12:45:45.307Z,34.80
2019-04-05T12:48:31.802Z,36.10
2019-04-05T12:51:18.119Z,35.80
2019-04-05T12:54:04.655Z,35.90
2019-04-05T12:56:53.965Z,36.10
2019-04-05T12:59:38.891Z,36.00
2019-04-05T13:02:33.401Z,36.40
2019-04-05T13:05:13.255Z,36.60
2019-04-05T13:07:59.761Z,37.60
2019-04-05T13:10:47.317Z,38.60
2019-04-05T13:17:11.040Z,38.20
2019-04-05T13:19:25.112Z,37.90
2019-04-05T13:22:11.228Z,37.80
2019-04-05T13:24:57.605Z,37.70
2019-04-05T13:27:43.650Z,37.70
2019-04-05T13:30:30.143Z,37.60
2019-04-05T13:33:16.402Z,36.80
2019-04-05T13:36:02.860Z,36.90
2019-04-05T13:38:54.893Z,37.00
2019-04-05T13:41:37.148Z,34.90
2019-04-05T13:44:23.621Z,33.80
2019-04-05T13:47:09.999Z,34.80
2019-04-05T13:49:56.507Z,34.90
2019-04-05T13:52:45.040Z,35.20
2019-04-05T13:55:31.568Z,35.40
2019-04-05T13:58:18.040Z,35.50
2019-04-05T14:01:04.527Z,35.70
2019-04-05T14:03:50.994Z,35.80
2019-04-05T14:06:37.343Z,35.90
2019-04-05T14:09:23.300Z,36.10
2019-04-05T14:12:10.203Z,36.10
2019-04-05T14:14:57.059Z,36.10
2019-04-05T14:17:44.937Z,36.20
2019-04-05T14:20:31.595Z,36.30
2019-04-05T14:23:17.880Z,36.20
2019-04-05T14:26:04.497Z,36.20
2019-04-05T14:28:52.993Z,36.30
2019-04-05T14:31:38.821Z,36.20
2019-04-05T14:34:25.184Z,36.20
2019-04-05T14:37:11.748Z,36.20
2019-04-05T14:39:57.936Z,36.20
2019-04-05T14:42:44.894Z,36.20
2019-04-05T14:45:32.059Z,36.40
2019-04-05T14:48:18.415Z,36.40
2019-04-05T14:51:04.795Z,36.30
2019-04-05T14:53:51.140Z,36.40
2019-04-05T14:56:37.452Z,36.30
2019-04-05T14:59:23.816Z,35.90
2019-04-05T15:02:10.114Z,35.90
2019-04-05T15:04:56.520Z,36.10
2019-04-05T15:07:42.732Z,36.20
2019-04-05T15:10:28.770Z,36.20
2019-04-05T15:13:15.180Z,36.30
2019-04-05T15:16:01.775Z,36.40
2019-04-05T15:18:48.059Z,36.40
2019-04-05T15:21:34.989Z,34.80
2019-04-05T15:24:22.693Z,34.90
2019-04-05T15:27:09.131Z,35.10
2019-04-05T15:29:56.267Z,35.00
2019-04-05T15:32:43.339Z,34.90
2019-04-05T15:35:29.743Z,34.50
2019-04-05T15:38:16.140Z,33.80
2019-04-05T15:41:02.097Z,33.90
2019-04-05T15:43:49.231Z,33.00
2019-04-05T15:46:35.511Z,33.00
2019-04-05T15:49:22.299Z,32.40
2019-04-05T15:52:18.712Z,32.20
2019-04-05T15:54:58.053Z,32.00
2019-04-05T15:57:44.449Z,32.40
2019-04-05T16:00:45.164Z,32.40
2019-04-05T16:03:33.108Z,32.30
2019-04-05T16:06:20.470Z,32.40
2019-04-05T16:09:08.718Z,32.00
2019-04-05T16:11:55.803Z,32.20
2019-04-05T16:14:42.221Z,32.20
2019-04-05T16:17:28.612Z,32.10
2019-04-05T16:20:15.165Z,31.80
2019-04-05T16:23:01.349Z,31.90
2019-04-05T16:25:47.972Z,32.00
2019-04-05T16:28:34.233Z,32.10
2019-04-05T16:31:20.535Z,32.40
2019-04-05T16:34:06.583Z,32.20
2019-04-05T16:36:52.907Z,32.00
2019-04-05T16:39:39.335Z,32.00
2019-04-05T16:42:25.753Z,32.20
2019-04-05T16:45:12.403Z,32.00
2019-04-05T16:47:58.427Z,32.90
2019-04-05T16:50:44.779Z,33.50
2019-04-05T16:53:31.101Z,33.80
2019-04-05T16:56:17.439Z,34.10
2019-04-05T16:59:04.203Z,34.40
2019-04-05T17:01:50.656Z,34.60
2019-04-05T17:04:36.546Z,34.90
2019-04-05T17:07:23.008Z,35.20
2019-04-05T17:10:09.573Z,35.20
2019-04-05T17:12:55.851Z,35.50
2019-04-05T17:15:42.224Z,35.50
2019-04-05T17:18:28.553Z,35.70
2019-04-05T17:21:15.074Z,35.90
2019-04-05T17:24:01.702Z,36.00
2019-04-05T17:26:49.021Z,36.00
2019-04-05T17:29:35.475Z,36.10
2019-04-05T17:32:21.679Z,36.10
2019-04-05T17:35:07.811Z,36.20
2019-04-05T17:37:54.262Z,36.40
2019-04-05T17:40:40.569Z,36.50
2019-04-05T17:43:27.247Z,36.60
2019-04-05T17:46:13.567Z,36.60
2019-04-05T17:48:59.909Z,36.60
2019-04-05T17:51:46.434Z,36.60
2019-04-05T17:54:32.672Z,36.60
2019-04-05T17:57:19.522Z,36.60
2019-04-05T18:00:08.458Z,36.60
2019-04-05T18:02:54.651Z,36.30
2019-04-05T18:05:40.980Z,36.40
2019-04-05T18:08:28.629Z,35.90
2019-04-05T18:11:15.208Z,35.80
2019-04-05T18:14:02.367Z,35.50
2019-04-05T18:16:48.676Z,35.20
2019-04-05T18:19:34.763Z,35.80
2019-04-05T18:22:20.945Z,35.80
2019-04-05T18:25:07.543Z,35.90
2019-04-05T18:27:53.811Z,36.00
2019-04-05T18:30:40.370Z,36.10
2019-04-05T18:33:26.682Z,36.10
2019-04-05T18:36:13.177Z,36.90
2019-04-05T18:38:59.600Z,36.30
2019-04-05T18:41:45.711Z,36.40
2019-04-05T18:44:31.872Z,36.50
2019-04-05T18:47:18.248Z,36.60
2019-04-05T18:50:04.695Z,36.60
2019-04-05T18:52:51.228Z,36.60
2019-04-05T18:55:38.630Z,36.70
2019-04-05T18:58:25.209Z,36.70
2019-04-05T19:01:11.496Z,37.00
2019-04-05T19:03:57.796Z,37.60
2019-04-05T19:06:44.299Z,38.00
2019-04-05T19:09:30.693Z,38.50
2019-04-05T19:12:17.044Z,38.60
2019-04-05T19:15:04.474Z,38.90
2019-04-05T19:17:50.427Z,38.90
2019-04-05T19:20:37.096Z,39.20
2019-04-05T19:23:23.864Z,39.30
2019-04-05T19:26:11.297Z,39.40
2019-04-05T19:28:57.805Z,39.50
2019-04-05T19:48:34.894Z,39.70
2019-04-05T19:51:20.471Z,39.60
2019-04-05T19:54:07.316Z,39.60
2019-04-05T19:56:54.798Z,39.60
2019-04-05T19:59:41.224Z,39.50
2019-04-05T20:02:31.434Z,39.40
2019-04-05T20:05:17.890Z,39.50
2019-04-05T20:08:04.136Z,39.40
2019-04-05T20:10:50.888Z,39.40
2019-04-05T20:13:41.310Z,39.30
2019-04-05T20:16:28.764Z,39.20
2019-04-05T20:19:14.871Z,39.20
2019-04-05T20:22:01.350Z,39.00
2019-04-05T20:24:48.680Z,38.90
2019-04-05T20:27:35.380Z,38.80
2019-04-05T20:30:21.739Z,38.70
2019-04-05T20:33:08.303Z,38.80
2019-04-05T20:35:54.323Z,38.80
2019-04-05T20:38:40.507Z,38.80
2019-04-05T20:41:26.697Z,38.90
2019-04-05T20:44:13.027Z,38.90
2019-04-05T20:46:59.133Z,38.90
2019-04-05T20:49:45.735Z,39.10
2019-04-05T20:52:32.148Z,39.30
2019-04-05T20:55:18.715Z,39.20
2019-04-05T20:58:05.124Z,39.80
2019-04-05T21:00:51.471Z,39.20
2019-04-05T21:03:37.968Z,39.20
2019-04-05T21:06:24.204Z,39.20
2019-04-05T21:09:10.305Z,39.00
2019-04-05T21:11:57.260Z,39.00
2019-04-05T21:14:43.563Z,39.00
2019-04-05T21:17:29.915Z,39.00
2019-04-05T21:20:16.901Z,38.90
2019-04-05T21:23:03.092Z,38.90
2019-04-05T21:25:49.451Z,38.90
2019-04-05T21:28:35.639Z,38.80
2019-04-05T21:31:21.510Z,39.30
2019-04-05T21:34:07.895Z,38.60
2019-04-05T21:36:53.992Z,38.60
2019-04-05T21:39:40.587Z,38.50
2019-04-05T21:42:27.077Z,38.50
2019-04-05T21:45:13.595Z,38.30
2019-04-05T21:47:59.867Z,38.20
2019-04-05T21:50:46.443Z,38.20
2019-04-05T21:53:35.415Z,38.10
2019-04-05T21:56:22.083Z,38.00
2019-04-05T21:59:08.567Z,37.90
2019-04-05T22:01:54.492Z,37.90
2019-04-05T22:04:40.898Z,37.90
2019-04-05T22:07:27.796Z,37.90
2019-04-05T22:10:14.061Z,37.90
2019-04-05T22:13:00.375Z,37.90
2019-04-05T22:15:46.935Z,37.80
2019-04-05T22:18:34.143Z,37.80
2019-04-05T22:21:20.526Z,37.80
2019-04-05T22:24:07.168Z,37.80
2019-04-05T22:26:53.462Z,37.80
2019-04-05T22:29:39.783Z,37.90
2019-04-05T22:32:26.332Z,37.90
2019-04-05T22:35:12.684Z,38.10
2019-04-05T22:37:58.996Z,38.10
2019-04-05T22:40:47.034Z,38.10
2019-04-05T22:43:46.720Z,38.10
2019-04-05T22:46:41.613Z,38.10
2019-04-05T22:49:29.329Z,38.20
2019-04-05T22:52:15.471Z,38.20
2019-04-05T22:55:10.405Z,38.20
2019-04-05T22:57:50.067Z,38.20
2019-04-05T23:00:36.383Z,38.20
2019-04-05T23:03:22.705Z,38.20
2019-04-05T23:06:08.977Z,38.20
2019-04-05T23:08:55.689Z,38.20
2019-04-05T23:11:41.998Z,38.20
2019-04-05T23:14:28.239Z,38.20
2019-04-05T23:17:14.324Z,38.20
2019-04-05T23:20:01.498Z,38.20
2019-04-05T23:22:47.924Z,38.20
2019-04-05T23:25:34.385Z,38.20
2019-04-05T23:28:20.652Z,38.30
2019-04-05T23:31:07.211Z,38.30
2019-04-05T23:33:53.623Z,38.30
2019-04-05T23:36:39.914Z,38.20
2019-04-05T23:39:26.187Z,38.30
2019-04-05T23:42:12.919Z,38.40
2019-04-05T23:44:58.745Z,38.40
2019-04-05T23:47:45.137Z,38.30
2019-04-05T23:50:31.499Z,38.40
2019-04-05T23:53:17.881Z,38.40
2019-04-05T23:56:04.223Z,38.50
2019-04-05T23:58:50.664Z,38.40
